createdAt,value
2018-07-20T22:06:32.093Z,46.32
2018-07-20T22:08:59.648Z,46.00
2018-07-20T22:13:27.741Z,48.94
2018-07-20T22:15:54.510Z,49.30
2018-07-20T22:18:20.964Z,51.74
2018-07-20T22:20:48.053Z,51.82
2018-07-20T22:23:15.938Z,52.03
2018-07-20T22:25:43.849Z,51.23
2018-07-20T22:28:11.446Z,49.16
2018-07-20T22:30:39.408Z,49.50
2018-07-20T22:33:06.070Z,49.32
2018-07-20T22:35:33.422Z,48.85
2018-07-20T22:38:00.176Z,48.87
2018-07-20T22:40:27.152Z,48.90
2018-07-20T22:42:54.164Z,48.95
2018-07-20T22:45:20.905Z,48.84
2018-07-20T22:47:47.390Z,48.96
2018-07-20T22:50:13.848Z,48.66
2018-07-20T22:52:40.301Z,49.40
2018-07-20T22:55:08.707Z,49.04
2018-07-20T22:57:35.505Z,48.53
2018-07-20T23:00:01.978Z,49.46
2018-07-20T23:02:28.427Z,49.00
2018-07-20T23:04:56.568Z,47.98
2018-07-20T23:07:23.020Z,47.97
2018-07-20T23:09:50.157Z,47.75
2018-07-20T23:12:17.936Z,47.91
2018-07-20T23:14:44.412Z,50.10
2018-07-20T23:17:11.879Z,50.44
2018-07-20T23:19:39.245Z,50.96
2018-07-20T23:22:06.015Z,50.87
2018-07-20T23:24:33.386Z,51.32
2018-07-20T23:26:59.848Z,51.38
2018-07-20T23:29:27.238Z,52.22
2018-07-20T23:31:56.889Z,52.29
2018-07-20T23:34:23.373Z,53.03
2018-07-20T23:36:49.841Z,53.31
2018-07-20T23:39:16.326Z,53.96
2018-07-20T23:41:42.793Z,54.38
2018-07-20T23:44:09.278Z,54.88
2018-07-20T23:46:35.762Z,55.49
2018-07-20T23:49:02.500Z,55.41
2018-07-20T23:51:29.059Z,55.17
2018-07-20T23:53:55.502Z,55.40
2018-07-20T23:56:21.953Z,55.94
2018-07-20T23:58:48.750Z,56.92
